createdAt,value
2023-10-24T00:02:19.710Z,100632.41
2023-10-24T00:07:45.455Z,100625.98
2023-10-24T00:13:11.508Z,100612.86
2023-10-24T00:18:37.226Z,100606.97
2023-10-24T00:24:02.875Z,100606.56
2023-10-24T00:29:28.563Z,100593.93
2023-10-24T00:34:54.358Z,100583.96
2023-10-24T00:40:20.017Z,100572.36
2023-10-24T00:45:45.863Z,100564.50
2023-10-24T00:51:11.596Z,100550.96
2023-10-24T00:56:38.960Z,100541.84
2023-10-24T01:02:05.084Z,100539.78
2023-10-24T01:07:31.108Z,100531.96
2023-10-24T01:12:56.971Z,100528.80
2023-10-24T01:18:22.611Z,100519.16
2023-10-24T01:23:49.468Z,100506.40
2023-10-24T01:29:08.553Z,100501.64
2023-10-24T01:34:34.263Z,100503.23
2023-10-24T01:39:59.955Z,100499.94
2023-10-24T01:45:27.567Z,100489.83
2023-10-24T01:50:53.240Z,100471.48
2023-10-24T01:56:18.972Z,100472.27
2023-10-24T02:01:44.987Z,100475.14
2023-10-24T02:07:10.808Z,100459.75
2023-10-24T02:12:36.517Z,100447.86
2023-10-24T02:18:05.299Z,100463.95
2023-10-24T02:23:31.011Z,100472.77
2023-10-24T02:28:56.986Z,100461.44
2023-10-24T02:34:22.781Z,100461.48
2023-10-24T02:39:48.459Z,100451.91
2023-10-24T02:45:14.410Z,100445.94
2023-10-24T02:50:40.398Z,100449.89
2023-10-24T02:56:06.069Z,100454.14
2023-10-24T03:01:31.913Z,100452.66
2023-10-24T03:06:57.720Z,100457.66
2023-10-24T03:12:20.848Z,100446.84
2023-10-24T03:17:46.680Z,100439.69
2023-10-24T03:23:12.556Z,100440.10
2023-10-24T03:28:38.353Z,100431.61
2023-10-24T03:34:04.606Z,100434.73
2023-10-24T03:39:30.257Z,100437.98
2023-10-24T03:44:55.939Z,100421.04
2023-10-24T03:50:21.672Z,100404.45
2023-10-24T03:55:47.482Z,100401.52
2023-10-24T04:01:13.421Z,100399.46
2023-10-24T04:06:38.873Z,100405.00
2023-10-24T04:12:04.515Z,100406.16
2023-10-24T04:17:30.298Z,100390.40
2023-10-24T04:22:56.232Z,100381.55
2023-10-24T04:28:21.998Z,100372.84
2023-10-24T04:33:47.817Z,100361.67
2023-10-24T04:39:13.511Z,100326.02
2023-10-24T04:44:39.873Z,100309.11
2023-10-24T04:50:06.581Z,100313.95
2023-10-24T04:55:32.989Z,100320.20
2023-10-24T05:00:58.837Z,100336.05
2023-10-24T05:06:24.922Z,100342.29
2023-10-24T05:11:50.610Z,100342.08
2023-10-24T05:17:16.250Z,100330.33
2023-10-24T05:22:41.968Z,100319.71
2023-10-24T05:28:07.664Z,100314.78
2023-10-24T05:33:33.999Z,100325.98
2023-10-24T05:38:59.769Z,100323.30
2023-10-24T05:44:25.845Z,100308.86
2023-10-24T05:49:51.534Z,100296.02
2023-10-24T05:55:17.279Z,100306.63
2023-10-24T06:00:43.042Z,100302.24
2023-10-24T06:06:08.824Z,100280.32
2023-10-24T06:11:34.700Z,100292.14
2023-10-24T06:17:00.378Z,100277.38
2023-10-24T06:22:26.597Z,100256.95
2023-10-24T06:27:52.355Z,100237.83
2023-10-24T06:33:18.130Z,100221.48
2023-10-24T06:38:43.887Z,100216.24
2023-10-24T06:44:09.547Z,100207.71
2023-10-24T06:49:35.353Z,100220.77
2023-10-24T06:55:01.215Z,100220.77
2023-10-24T07:00:28.845Z,100228.24
2023-10-24T07:05:54.575Z,100228.64
2023-10-24T07:11:20.243Z,100230.27
2023-10-24T07:16:46.015Z,100233.96
2023-10-24T07:22:11.719Z,100225.08
2023-10-24T07:27:37.421Z,100208.98
2023-10-24T07:33:03.217Z,100195.77
2023-10-24T07:38:27.490Z,100194.38
2023-10-24T07:43:54.378Z,100205.23
2023-10-24T07:49:21.464Z,100207.11
2023-10-24T07:54:47.090Z,100199.21
2023-10-24T08:00:12.900Z,100198.42
2023-10-24T08:05:38.723Z,100209.76
2023-10-24T08:11:04.421Z,100209.66
2023-10-24T08:16:30.846Z,100203.79
2023-10-24T08:21:56.703Z,100194.98
2023-10-24T08:27:22.426Z,100181.73
2023-10-24T08:32:48.208Z,100178.98
2023-10-24T08:38:13.946Z,100184.06
2023-10-24T08:43:41.720Z,100182.50
2023-10-24T08:49:07.912Z,100181.56
2023-10-24T08:54:33.646Z,100176.27
2023-10-24T09:00:02.390Z,100162.39
2023-10-24T09:05:31.749Z,100162.96
2023-10-24T09:10:57.596Z,100152.67
2023-10-24T09:16:31.586Z,100155.57
2023-10-24T09:22:06.738Z,100149.24
2023-10-24T09:27:38.756Z,100142.02
2023-10-24T09:33:06.536Z,100143.67
2023-10-24T09:38:32.310Z,100145.86
2023-10-24T09:44:03.103Z,100144.20
2023-10-24T09:49:29.705Z,100128.71
2023-10-24T09:54:57.769Z,100120.14
2023-10-24T10:00:25.466Z,100115.27
2023-10-24T10:05:54.843Z,100113.73
2023-10-24T10:11:22.881Z,100097.16
2023-10-24T10:16:59.740Z,100091.19
2023-10-24T10:22:44.134Z,100096.44
2023-10-24T10:28:21.131Z,100086.06
2023-10-24T10:33:48.881Z,100077.36
2023-10-24T10:39:18.066Z,100070.30
2023-10-24T10:45:28.006Z,100066.08
2023-10-24T10:50:54.620Z,100072.89
2023-10-24T10:56:40.805Z,100072.75
2023-10-24T11:02:22.329Z,100078.91
2023-10-24T11:08:18.846Z,100073.88
2023-10-24T11:13:58.865Z,100067.38
2023-10-24T11:19:24.586Z,100057.96
2023-10-24T11:24:50.273Z,100052.73
2023-10-24T11:30:16.068Z,100051.19
2023-10-24T11:35:35.899Z,100051.00
2023-10-24T11:41:01.606Z,100042.36
2023-10-24T11:46:25.658Z,100033.73
2023-10-24T11:51:51.373Z,100029.77
2023-10-24T11:57:17.640Z,100023.31
2023-10-24T12:02:43.391Z,100023.72
2023-10-24T12:08:09.520Z,100027.15
2023-10-24T12:13:35.366Z,100028.92
2023-10-24T12:18:54.433Z,100039.81
2023-10-24T12:24:20.123Z,100048.12
2023-10-24T12:29:45.907Z,100034.95
2023-10-24T12:35:11.598Z,100033.15
2023-10-24T12:40:37.310Z,100029.20
2023-10-24T12:46:03.032Z,100014.71
2023-10-24T12:51:29.145Z,100015.77
2023-10-24T12:56:55.459Z,100016.52
2023-10-24T13:02:21.453Z,100014.96
2023-10-24T13:07:47.240Z,100002.17
2023-10-24T13:13:12.992Z,100007.05
2023-10-24T13:18:38.640Z,100005.50
2023-10-24T13:23:53.177Z,99995.81
2023-10-24T13:29:18.932Z,99988.73
2023-10-24T13:40:13.508Z,99972.48
2023-10-24T13:45:22.526Z,99966.96
2023-10-24T13:50:48.709Z,99966.40
2023-10-24T13:56:14.547Z,99960.64
2023-10-24T14:01:40.666Z,99956.18
2023-10-24T14:07:06.823Z,99949.77
2023-10-24T14:12:32.533Z,99941.30
2023-10-24T14:17:58.377Z,99938.73
2023-10-24T14:23:24.493Z,99930.73
2023-10-24T14:28:51.656Z,99919.10
2023-10-24T14:34:17.353Z,99920.27
2023-10-24T14:39:43.249Z,99912.23
2023-10-24T14:45:09.247Z,99909.29
2023-10-24T14:50:35.258Z,99917.64
2023-10-24T14:56:00.966Z,99920.92
2023-10-24T15:01:26.727Z,99918.57
2023-10-24T15:06:52.396Z,99928.61
2023-10-24T15:12:18.065Z,99929.74
2023-10-24T15:17:43.988Z,99938.02
2023-10-24T15:23:09.743Z,99944.42
2023-10-24T15:28:35.598Z,99942.60
2023-10-24T15:33:55.140Z,99936.48
2023-10-24T15:39:20.888Z,99938.74
2023-10-24T15:44:46.881Z,99938.24
2023-10-24T15:50:13.848Z,99936.44
2023-10-24T15:55:41.084Z,99935.92
2023-10-24T16:01:06.871Z,99934.41
2023-10-24T16:06:33.984Z,99935.91
2023-10-24T16:11:59.851Z,99937.89
2023-10-24T16:17:18.415Z,99936.42
2023-10-24T16:22:36.395Z,99936.38
2023-10-24T16:28:02.361Z,99938.69
2023-10-24T16:33:30.020Z,99941.55
2023-10-24T16:38:56.166Z,99942.44
2023-10-24T16:44:22.681Z,99926.87
2023-10-24T16:49:48.739Z,99923.54
2023-10-24T16:55:14.636Z,99924.65
2023-10-24T17:00:40.774Z,99917.99
2023-10-24T17:06:07.424Z,99912.39
2023-10-24T17:11:25.739Z,99904.63
2023-10-24T17:16:51.543Z,99893.86
2023-10-24T17:22:17.331Z,99888.02
2023-10-24T17:27:43.055Z,99880.80
2023-10-24T17:33:08.751Z,99872.11
2023-10-24T17:38:34.691Z,99864.77
2023-10-24T17:44:00.466Z,99851.16
2023-10-24T17:49:26.436Z,99840.80
2023-10-24T17:54:52.129Z,99840.27
2023-10-24T18:00:17.972Z,99839.05
2023-10-24T18:05:43.707Z,99824.19
2023-10-24T18:11:09.671Z,99812.11
2023-10-24T18:16:35.442Z,99806.98
2023-10-24T18:21:50.216Z,99800.25
2023-10-24T18:27:15.874Z,99784.63
2023-10-24T18:32:41.586Z,99782.53
2023-10-24T18:38:07.296Z,99792.42
2023-10-24T18:43:33.151Z,99803.02
2023-10-24T18:48:59.473Z,99805.33
2023-10-24T18:54:25.867Z,99805.35
2023-10-24T19:05:24.145Z,99804.05
2023-10-24T19:10:51.167Z,99794.69
2023-10-24T19:16:18.219Z,99792.18
2023-10-24T19:21:45.655Z,99800.52
2023-10-24T19:27:12.132Z,99797.78
2023-10-24T19:32:46.938Z,99798.40
2023-10-24T19:38:16.335Z,99803.28
2023-10-24T19:43:43.175Z,99800.03
2023-10-24T19:49:11.618Z,99791.65
2023-10-24T19:54:38.850Z,99787.52
2023-10-24T20:00:06.323Z,99787.36
2023-10-24T20:05:36.425Z,99787.65
2023-10-24T20:12:32.428Z,99789.49
2023-10-24T20:17:05.088Z,99792.34
2023-10-24T20:22:31.926Z,99788.06
2023-10-24T20:27:59.322Z,99784.77
2023-10-24T20:33:25.462Z,99781.15
2023-10-24T20:38:51.219Z,99778.44
2023-10-24T20:44:17.028Z,99766.65
2023-10-24T20:49:44.547Z,99763.09
2023-10-24T20:55:12.660Z,99760.46
2023-10-24T21:00:38.958Z,99758.15
2023-10-24T21:06:04.692Z,99762.78
2023-10-24T21:11:30.388Z,99759.20
2023-10-24T21:16:56.217Z,99755.64
2023-10-24T21:22:21.901Z,99746.70
2023-10-24T21:27:47.628Z,99741.38
2023-10-24T21:33:13.455Z,99741.59
2023-10-24T21:38:37.415Z,99744.02
2023-10-24T21:44:03.126Z,99740.10
2023-10-24T21:49:28.858Z,99743.55
2023-10-24T21:54:55.954Z,99742.86
2023-10-24T22:00:21.691Z,99741.16
2023-10-24T22:05:47.369Z,99736.52
2023-10-24T22:11:13.032Z,99731.33
2023-10-24T22:16:38.801Z,99734.52
2023-10-24T22:22:04.341Z,99734.70
2023-10-24T22:27:30.135Z,99732.94
2023-10-24T22:32:55.858Z,99734.05
2023-10-24T22:38:21.782Z,99728.23
2023-10-24T22:43:48.752Z,99723.18
2023-10-24T22:49:14.466Z,99723.80
2023-10-24T22:54:40.281Z,99728.83
2023-10-24T23:00:06.249Z,99734.84
2023-10-24T23:05:24.206Z,99733.54
2023-10-24T23:10:49.885Z,99730.64
2023-10-24T23:16:15.580Z,99732.90
2023-10-24T23:21:41.452Z,99729.63
2023-10-24T23:27:07.118Z,99731.34
2023-10-24T23:32:32.781Z,99727.38
2023-10-24T23:37:58.479Z,99724.30
2023-10-24T23:43:24.126Z,99717.86
2023-10-24T23:48:42.609Z,99714.33
2023-10-24T23:54:08.754Z,99713.80
2023-10-24T23:59:35.715Z,99714.37
